NEU! ab. 1.4.
Nortel Info 128,740 MHz

WebCam

  
Kamera Halle
Kamera Vorfeld
Wetter EDDS

METAR

EDDS 170420Z VRB01KT 0650 R25/0800V1300D FZFG SCT001 SCT040 M02/M03 Q1017 =
AMD EDDS 170202Z 1702/1724 VRB03KT 9999 SCT030 BKN045 TEMPO 1702/1708 0200 FZFG BKN001 BECMG 1709/1711 21005KT


TAF

AMD EDDS 170202Z 1702/1724 VRB03KT 9999 SCT030 BKN045 TEMPO 1702/1708 0200 FZFG BKN001 BECMG 1709/1711 21005KT =


SR/SS

07:08 / 15:26 UTC
(EDSO 17-12-2018)